sensor_id;sensor_type;location;lat;lon;timestamp;pressure;altitude;pressure_sealevel;temperature
15575;BMP180;7888;46.748;8.102;2023-04-01T00:01:01;93272.00;;;11.50
15575;BMP180;7888;46.748;8.102;2023-04-01T00:03:29;93287.00;;;11.50
15575;BMP180;7888;46.748;8.102;2023-04-01T00:05:57;93280.00;;;11.60
15575;BMP180;7888;46.748;8.102;2023-04-01T00:08:25;93293.00;;;11.60
15575;BMP180;7888;46.748;8.102;2023-04-01T00:10:52;93294.00;;;11.60
15575;BMP180;7888;46.748;8.102;2023-04-01T00:13:19;93279.00;;;11.60
15575;BMP180;7888;46.748;8.102;2023-04-01T00:15:45;93282.00;;;11.60
15575;BMP180;7888;46.748;8.102;2023-04-01T00:18:12;93287.00;;;11.70
15575;BMP180;7888;46.748;8.102;2023-04-01T00:20:43;93271.00;;;11.70
15575;BMP180;7888;46.748;8.102;2023-04-01T00:23:09;93279.00;;;11.70
15575;BMP180;7888;46.748;8.102;2023-04-01T00:25:35;93271.00;;;11.70
15575;BMP180;7888;46.748;8.102;2023-04-01T00:28:01;93282.00;;;11.70
15575;BMP180;7888;46.748;8.102;2023-04-01T00:30:27;93278.00;;;11.80
15575;BMP180;7888;46.748;8.102;2023-04-01T00:32:53;93292.00;;;11.80
15575;BMP180;7888;46.748;8.102;2023-04-01T00:35:19;93289.00;;;11.80
15575;BMP180;7888;46.748;8.102;2023-04-01T00:37:45;93282.00;;;11.80
15575;BMP180;7888;46.748;8.102;2023-04-01T00:40:32;93291.00;;;11.80
15575;BMP180;7888;46.748;8.102;2023-04-01T00:42:59;93299.00;;;11.80
15575;BMP180;7888;46.748;8.102;2023-04-01T00:45:41;93288.00;;;11.70
15575;BMP180;7888;46.748;8.102;2023-04-01T00:48:21;93318.00;;;11.70
15575;BMP180;7888;46.748;8.102;2023-04-01T00:51:02;93308.00;;;11.70
15575;BMP180;7888;46.748;8.102;2023-04-01T00:53:32;93295.00;;;11.80
15575;BMP180;7888;46.748;8.102;2023-04-01T00:56:16;93285.00;;;11.70
15575;BMP180;7888;46.748;8.102;2023-04-01T00:58:49;93306.00;;;11.80
15575;BMP180;7888;46.748;8.102;2023-04-01T01:01:16;93314.00;;;11.70
15575;BMP180;7888;46.748;8.102;2023-04-01T01:03:42;93310.00;;;11.80
15575;BMP180;7888;46.748;8.102;2023-04-01T01:09:43;93301.00;;;11.70
15575;BMP180;7888;46.748;8.102;2023-04-01T01:15:32;93299.00;;;11.70
15575;BMP180;7888;46.748;8.102;2023-04-01T01:32:44;93292.00;;;11.70
15575;BMP180;7888;46.748;8.102;2023-04-01T01:35:37;93304.00;;;11.70
15575;BMP180;7888;46.748;8.102;2023-04-01T01:38:27;93297.00;;;11.70
15575;BMP180;7888;46.748;8.102;2023-04-01T01:40:57;93311.00;;;11.70
15575;BMP180;7888;46.748;8.102;2023-04-01T01:43:36;93297.00;;;11.70
15575;BMP180;7888;46.748;8.102;2023-04-01T01:46:10;93297.00;;;11.80
15575;BMP180;7888;46.748;8.102;2023-04-01T01:48:38;93270.00;;;11.80
15575;BMP180;7888;46.748;8.102;2023-04-01T01:51:07;93301.00;;;11.80
15575;BMP180;7888;46.748;8.102;2023-04-01T01:53:34;93301.00;;;11.80
15575;BMP180;7888;46.748;8.102;2023-04-01T01:56:00;93290.00;;;11.80
15575;BMP180;7888;46.748;8.102;2023-04-01T01:58:39;93296.00;;;11.80
15575;BMP180;7888;46.748;8.102;2023-04-01T02:01:17;93288.00;;;11.80
15575;BMP180;7888;46.748;8.102;2023-04-01T02:03:46;93285.00;;;11.80
15575;BMP180;7888;46.748;8.102;2023-04-01T02:06:18;93290.00;;;11.80
15575;BMP180;7888;46.748;8.102;2023-04-01T02:09:04;93287.00;;;11.70
15575;BMP180;7888;46.748;8.102;2023-04-01T02:14:21;93270.00;;;11.60
15575;BMP180;7888;46.748;8.102;2023-04-01T02:17:05;93282.00;;;11.60
15575;BMP180;7888;46.748;8.102;2023-04-01T02:19:44;93273.00;;;11.60
15575;BMP180;7888;46.748;8.102;2023-04-01T02:22:18;93232.00;;;11.50
15575;BMP180;7888;46.748;8.102;2023-04-01T02:24:46;93257.00;;;11.60
15575;BMP180;7888;46.748;8.102;2023-04-01T02:27:12;93257.00;;;11.60
15575;BMP180;7888;46.748;8.102;2023-04-01T02:29:39;93244.00;;;11.60
15575;BMP180;7888;46.748;8.102;2023-04-01T02:32:06;93231.00;;;11.50
15575;BMP180;7888;46.748;8.102;2023-04-01T02:34:33;93227.00;;;11.50
15575;BMP180;7888;46.748;8.102;2023-04-01T02:36:59;93200.00;;;11.50
15575;BMP180;7888;46.748;8.102;2023-04-01T02:39:25;93220.00;;;11.50
15575;BMP180;7888;46.748;8.102;2023-04-01T02:41:52;93202.00;;;11.50
15575;BMP180;7888;46.748;8.102;2023-04-01T02:44:18;93218.00;;;11.50
15575;BMP180;7888;46.748;8.102;2023-04-01T02:46:44;93223.00;;;11.40
15575;BMP180;7888;46.748;8.102;2023-04-01T02:49:10;93220.00;;;11.40
15575;BMP180;7888;46.748;8.102;2023-04-01T02:51:36;93243.00;;;11.40
15575;BMP180;7888;46.748;8.102;2023-04-01T02:54:02;93236.00;;;11.40
15575;BMP180;7888;46.748;8.102;2023-04-01T02:56:29;93239.00;;;11.30
15575;BMP180;7888;46.748;8.102;2023-04-01T02:58:55;93249.00;;;11.30
15575;BMP180;7888;46.748;8.102;2023-04-01T03:01:21;93247.00;;;11.30
15575;BMP180;7888;46.748;8.102;2023-04-01T03:03:47;93230.00;;;11.30
15575;BMP180;7888;46.748;8.102;2023-04-01T03:06:15;93230.00;;;11.20
15575;BMP180;7888;46.748;8.102;2023-04-01T03:08:41;93222.00;;;11.20
15575;BMP180;7888;46.748;8.102;2023-04-01T03:11:09;93190.00;;;11.20
15575;BMP180;7888;46.748;8.102;2023-04-01T03:13:35;93203.00;;;11.00
15575;BMP180;7888;46.748;8.102;2023-04-01T03:16:01;93190.00;;;11.20
15575;BMP180;7888;46.748;8.102;2023-04-01T03:18:27;93204.00;;;11.20
15575;BMP180;7888;46.748;8.102;2023-04-01T03:20:53;93192.00;;;11.10
15575;BMP180;7888;46.748;8.102;2023-04-01T03:23:19;93194.00;;;11.10
15575;BMP180;7888;46.748;8.102;2023-04-01T03:25:47;93181.00;;;11.00
15575;BMP180;7888;46.748;8.102;2023-04-01T03:28:13;93181.00;;;11.00
15575;BMP180;7888;46.748;8.102;2023-04-01T03:30:40;93170.00;;;11.00
15575;BMP180;7888;46.748;8.102;2023-04-01T03:33:06;93187.00;;;11.00
15575;BMP180;7888;46.748;8.102;2023-04-01T03:35:33;93189.00;;;10.90
15575;BMP180;7888;46.748;8.102;2023-04-01T03:38:01;93175.00;;;10.90
15575;BMP180;7888;46.748;8.102;2023-04-01T03:40:27;93175.00;;;11.00
15575;BMP180;7888;46.748;8.102;2023-04-01T03:42:53;93177.00;;;11.00
15575;BMP180;7888;46.748;8.102;2023-04-01T03:45:19;93173.00;;;11.00
15575;BMP180;7888;46.748;8.102;2023-04-01T03:47:45;93186.00;;;11.00
15575;BMP180;7888;46.748;8.102;2023-04-01T03:50:11;93185.00;;;11.00
15575;BMP180;7888;46.748;8.102;2023-04-01T03:52:37;93146.00;;;10.90
15575;BMP180;7888;46.748;8.102;2023-04-01T03:55:03;93172.00;;;11.00
15575;BMP180;7888;46.748;8.102;2023-04-01T03:57:31;93167.00;;;10.90
15575;BMP180;7888;46.748;8.102;2023-04-01T03:59:57;93159.00;;;11.00
15575;BMP180;7888;46.748;8.102;2023-04-01T04:02:23;93171.00;;;11.00
15575;BMP180;7888;46.748;8.102;2023-04-01T04:04:48;93182.00;;;11.00
15575;BMP180;7888;46.748;8.102;2023-04-01T04:07:14;93177.00;;;11.00
15575;BMP180;7888;46.748;8.102;2023-04-01T04:09:40;93141.00;;;11.00
15575;BMP180;7888;46.748;8.102;2023-04-01T04:12:06;93137.00;;;11.00
15575;BMP180;7888;46.748;8.102;2023-04-01T04:14:32;93146.00;;;11.00
15575;BMP180;7888;46.748;8.102;2023-04-01T04:16:58;93145.00;;;11.00
15575;BMP180;7888;46.748;8.102;2023-04-01T04:19:24;93154.00;;;11.00
15575;BMP180;7888;46.748;8.102;2023-04-01T04:21:49;93165.00;;;10.90
15575;BMP180;7888;46.748;8.102;2023-04-01T04:24:15;93191.00;;;10.90
15575;BMP180;7888;46.748;8.102;2023-04-01T04:26:41;93201.00;;;10.80
15575;BMP180;7888;46.748;8.102;2023-04-01T04:29:07;93225.00;;;10.80
15575;BMP180;7888;46.748;8.102;2023-04-01T04:31:33;93229.00;;;10.80
15575;BMP180;7888;46.748;8.102;2023-04-01T04:34:00;93234.00;;;10.80
15575;BMP180;7888;46.748;8.102;2023-04-01T04:36:28;93225.00;;;10.90
15575;BMP180;7888;46.748;8.102;2023-04-01T04:38:54;93222.00;;;10.80
15575;BMP180;7888;46.748;8.102;2023-04-01T04:41:20;93210.00;;;10.80
15575;BMP180;7888;46.748;8.102;2023-04-01T04:43:55;93195.00;;;10.70
15575;BMP180;7888;46.748;8.102;2023-04-01T04:46:22;93203.00;;;10.70
15575;BMP180;7888;46.748;8.102;2023-04-01T04:48:48;93193.00;;;10.70
15575;BMP180;7888;46.748;8.102;2023-04-01T04:51:19;93191.00;;;10.60
15575;BMP180;7888;46.748;8.102;2023-04-01T04:53:47;93185.00;;;10.80
15575;BMP180;7888;46.748;8.102;2023-04-01T04:56:18;93204.00;;;10.80
15575;BMP180;7888;46.748;8.102;2023-04-01T04:58:44;93205.00;;;10.80
15575;BMP180;7888;46.748;8.102;2023-04-01T05:01:13;93209.00;;;10.90
15575;BMP180;7888;46.748;8.102;2023-04-01T05:03:39;93198.00;;;11.00
15575;BMP180;7888;46.748;8.102;2023-04-01T05:06:08;93190.00;;;11.00
15575;BMP180;7888;46.748;8.102;2023-04-01T05:08:34;93200.00;;;11.10
15575;BMP180;7888;46.748;8.102;2023-04-01T05:11:02;93194.00;;;11.10
15575;BMP180;7888;46.748;8.102;2023-04-01T05:13:28;93198.00;;;11.20
15575;BMP180;7888;46.748;8.102;2023-04-01T05:15:55;93188.00;;;11.20
15575;BMP180;7888;46.748;8.102;2023-04-01T05:18:21;93207.00;;;11.30
15575;BMP180;7888;46.748;8.102;2023-04-01T05:20:53;93215.00;;;11.30
15575;BMP180;7888;46.748;8.102;2023-04-01T05:23:22;93215.00;;;11.40
15575;BMP180;7888;46.748;8.102;2023-04-01T05:25:49;93211.00;;;11.40
15575;BMP180;7888;46.748;8.102;2023-04-01T05:28:16;93211.00;;;11.40
15575;BMP180;7888;46.748;8.102;2023-04-01T05:30:43;93210.00;;;11.40
15575;BMP180;7888;46.748;8.102;2023-04-01T05:33:11;93196.00;;;11.50
15575;BMP180;7888;46.748;8.102;2023-04-01T05:35:38;93199.00;;;11.50
15575;BMP180;7888;46.748;8.102;2023-04-01T05:38:04;93208.00;;;11.50
15575;BMP180;7888;46.748;8.102;2023-04-01T05:40:31;93251.00;;;11.50
15575;BMP180;7888;46.748;8.102;2023-04-01T05:42:58;93247.00;;;11.50
15575;BMP180;7888;46.748;8.102;2023-04-01T05:45:24;93267.00;;;11.50
15575;BMP180;7888;46.748;8.102;2023-04-01T05:47:51;93238.00;;;11.60
15575;BMP180;7888;46.748;8.102;2023-04-01T05:50:17;93248.00;;;11.60
15575;BMP180;7888;46.748;8.102;2023-04-01T05:52:42;93250.00;;;11.60
15575;BMP180;7888;46.748;8.102;2023-04-01T05:55:08;93245.00;;;11.60
15575;BMP180;7888;46.748;8.102;2023-04-01T05:57:34;93226.00;;;11.60
15575;BMP180;7888;46.748;8.102;2023-04-01T06:00:00;93230.00;;;11.60
15575;BMP180;7888;46.748;8.102;2023-04-01T06:02:26;93245.00;;;11.70
15575;BMP180;7888;46.748;8.102;2023-04-01T06:05:18;93275.00;;;11.60
15575;BMP180;7888;46.748;8.102;2023-04-01T06:07:44;93275.00;;;11.60
15575;BMP180;7888;46.748;8.102;2023-04-01T06:10:21;93294.00;;;11.60
15575;BMP180;7888;46.748;8.102;2023-04-01T06:19:33;93288.00;;;11.70
15575;BMP180;7888;46.748;8.102;2023-04-01T06:34:20;93276.00;;;11.60
15575;BMP180;7888;46.748;8.102;2023-04-01T06:42:48;93257.00;;;11.70
15575;BMP180;7888;46.748;8.102;2023-04-01T06:54:09;93254.00;;;11.80
15575;BMP180;7888;46.748;8.102;2023-04-01T06:56:41;93246.00;;;11.90
15575;BMP180;7888;46.748;8.102;2023-04-01T06:59:21;93254.00;;;12.00
15575;BMP180;7888;46.748;8.102;2023-04-01T07:02:28;93259.00;;;12.00
15575;BMP180;7888;46.748;8.102;2023-04-01T07:04:58;93249.00;;;12.10
15575;BMP180;7888;46.748;8.102;2023-04-01T07:07:46;93268.00;;;12.10
15575;BMP180;7888;46.748;8.102;2023-04-01T07:10:32;93280.00;;;12.20
15575;BMP180;7888;46.748;8.102;2023-04-01T07:13:09;93275.00;;;12.10
15575;BMP180;7888;46.748;8.102;2023-04-01T07:15:50;93281.00;;;12.20
15575;BMP180;7888;46.748;8.102;2023-04-01T07:18:46;93283.00;;;12.20
15575;BMP180;7888;46.748;8.102;2023-04-01T07:21:27;93288.00;;;12.30
15575;BMP180;7888;46.748;8.102;2023-04-01T07:24:01;93291.00;;;12.30
15575;BMP180;7888;46.748;8.102;2023-04-01T07:26:29;93293.00;;;12.40
15575;BMP180;7888;46.748;8.102;2023-04-01T07:28:57;93308.00;;;12.40
15575;BMP180;7888;46.748;8.102;2023-04-01T07:32:09;93308.00;;;12.40
15575;BMP180;7888;46.748;8.102;2023-04-01T07:35:28;93300.00;;;12.40
15575;BMP180;7888;46.748;8.102;2023-04-01T07:41:23;93295.00;;;12.30
15575;BMP180;7888;46.748;8.102;2023-04-01T07:50:17;93317.00;;;12.40
15575;BMP180;7888;46.748;8.102;2023-04-01T08:01:39;93331.00;;;12.40
15575;BMP180;7888;46.748;8.102;2023-04-01T08:21:16;93326.00;;;12.50
15575;BMP180;7888;46.748;8.102;2023-04-01T08:23:51;93322.00;;;12.50
15575;BMP180;7888;46.748;8.102;2023-04-01T08:26:39;93332.00;;;12.50
15575;BMP180;7888;46.748;8.102;2023-04-01T08:29:27;93342.00;;;12.50
15575;BMP180;7888;46.748;8.102;2023-04-01T08:32:10;93346.00;;;12.50
15575;BMP180;7888;46.748;8.102;2023-04-01T08:34:40;93343.00;;;12.50
15575;BMP180;7888;46.748;8.102;2023-04-01T08:37:20;93347.00;;;12.60
15575;BMP180;7888;46.748;8.102;2023-04-01T08:39:57;93352.00;;;12.60
15575;BMP180;7888;46.748;8.102;2023-04-01T08:48:31;93375.00;;;12.60
15575;BMP180;7888;46.748;8.102;2023-04-01T09:00:25;93352.00;;;12.60
15575;BMP180;7888;46.748;8.102;2023-04-01T09:13:05;93366.00;;;12.50
15575;BMP180;7888;46.748;8.102;2023-04-01T09:35:47;93339.00;;;12.60
15575;BMP180;7888;46.748;8.102;2023-04-01T09:50:03;93351.00;;;12.50
15575;BMP180;7888;46.748;8.102;2023-04-01T09:53:14;93335.00;;;12.50
15575;BMP180;7888;46.748;8.102;2023-04-01T10:17:27;93331.00;;;12.80
15575;BMP180;7888;46.748;8.102;2023-04-01T10:26:32;93310.00;;;13.00
15575;BMP180;7888;46.748;8.102;2023-04-01T10:29:32;93317.00;;;13.10
15575;BMP180;7888;46.748;8.102;2023-04-01T10:32:52;93319.00;;;13.10
15575;BMP180;7888;46.748;8.102;2023-04-01T10:35:53;93310.00;;;13.10
15575;BMP180;7888;46.748;8.102;2023-04-01T10:41:41;93311.00;;;13.20
15575;BMP180;7888;46.748;8.102;2023-04-01T11:16:57;93289.00;;;14.10
15575;BMP180;7888;46.748;8.102;2023-04-01T11:22:48;93286.00;;;14.50
15575;BMP180;7888;46.748;8.102;2023-04-01T11:28:47;93280.00;;;14.70
15575;BMP180;7888;46.748;8.102;2023-04-01T11:31:47;93272.00;;;14.80
15575;BMP180;7888;46.748;8.102;2023-04-01T11:43:25;93249.00;;;15.30
15575;BMP180;7888;46.748;8.102;2023-04-01T11:46:27;93241.00;;;15.30
15575;BMP180;7888;46.748;8.102;2023-04-01T11:52:05;93242.00;;;15.70
15575;BMP180;7888;46.748;8.102;2023-04-01T12:06:54;93232.00;;;16.10
15575;BMP180;7888;46.748;8.102;2023-04-01T12:09:46;93226.00;;;16.10
15575;BMP180;7888;46.748;8.102;2023-04-01T12:12:32;93239.00;;;16.20
15575;BMP180;7888;46.748;8.102;2023-04-01T12:15:14;93240.00;;;16.20
15575;BMP180;7888;46.748;8.102;2023-04-01T12:18:18;93230.00;;;16.30
15575;BMP180;7888;46.748;8.102;2023-04-01T12:26:59;93234.00;;;16.50
15575;BMP180;7888;46.748;8.102;2023-04-01T12:32:41;93227.00;;;16.70
15575;BMP180;7888;46.748;8.102;2023-04-01T12:35:27;93224.00;;;16.80
15575;BMP180;7888;46.748;8.102;2023-04-01T12:41:34;93210.00;;;16.90
15575;BMP180;7888;46.748;8.102;2023-04-01T13:03:43;93192.00;;;17.50
15575;BMP180;7888;46.748;8.102;2023-04-01T13:19:58;93170.00;;;18.30
15575;BMP180;7888;46.748;8.102;2023-04-01T13:23:19;93168.00;;;18.40
15575;BMP180;7888;46.748;8.102;2023-04-01T13:28:59;93157.00;;;18.50
15575;BMP180;7888;46.748;8.102;2023-04-01T13:31:43;93172.00;;;18.40
15575;BMP180;7888;46.748;8.102;2023-04-01T13:40:33;93169.00;;;18.60
15575;BMP180;7888;46.748;8.102;2023-04-01T13:43:28;93172.00;;;18.70
15575;BMP180;7888;46.748;8.102;2023-04-01T13:54:37;93160.00;;;19.10
15575;BMP180;7888;46.748;8.102;2023-04-01T14:00:50;93146.00;;;19.40
15575;BMP180;7888;46.748;8.102;2023-04-01T14:09:51;93151.00;;;19.60
15575;BMP180;7888;46.748;8.102;2023-04-01T14:12:39;93161.00;;;19.70
15575;BMP180;7888;46.748;8.102;2023-04-01T14:18:42;93152.00;;;19.50
15575;BMP180;7888;46.748;8.102;2023-04-01T14:21:29;93142.00;;;19.50
15575;BMP180;7888;46.748;8.102;2023-04-01T14:41:45;93135.00;;;20.10
15575;BMP180;7888;46.748;8.102;2023-04-01T14:47:39;93145.00;;;20.10
15575;BMP180;7888;46.748;8.102;2023-04-01T14:50:21;93138.00;;;20.10
15575;BMP180;7888;46.748;8.102;2023-04-01T14:52:59;93134.00;;;20.20
15575;BMP180;7888;46.748;8.102;2023-04-01T14:58:15;93127.00;;;20.40
15575;BMP180;7888;46.748;8.102;2023-04-01T15:06:46;93121.00;;;20.60
15575;BMP180;7888;46.748;8.102;2023-04-01T15:12:37;93124.00;;;20.90
15575;BMP180;7888;46.748;8.102;2023-04-01T15:18:56;93117.00;;;21.00
15575;BMP180;7888;46.748;8.102;2023-04-01T15:30:33;93112.00;;;21.20
15575;BMP180;7888;46.748;8.102;2023-04-01T15:38:34;93106.00;;;21.10
15575;BMP180;7888;46.748;8.102;2023-04-01T15:43:50;93112.00;;;21.10
15575;BMP180;7888;46.748;8.102;2023-04-01T15:46:48;93117.00;;;20.90
15575;BMP180;7888;46.748;8.102;2023-04-01T15:49:50;93110.00;;;20.80
15575;BMP180;7888;46.748;8.102;2023-04-01T15:53:19;93121.00;;;20.70
15575;BMP180;7888;46.748;8.102;2023-04-01T15:55:59;93111.00;;;20.70
15575;BMP180;7888;46.748;8.102;2023-04-01T16:04:24;93088.00;;;20.50
15575;BMP180;7888;46.748;8.102;2023-04-01T16:16:24;93107.00;;;20.30
15575;BMP180;7888;46.748;8.102;2023-04-01T16:30:00;93094.00;;;20.10
15575;BMP180;7888;46.748;8.102;2023-04-01T16:41:35;93089.00;;;19.60
15575;BMP180;7888;46.748;8.102;2023-04-01T16:44:22;93103.00;;;19.60
15575;BMP180;7888;46.748;8.102;2023-04-01T16:46:57;93121.00;;;19.50
15575;BMP180;7888;46.748;8.102;2023-04-01T16:55:12;93126.00;;;19.40
15575;BMP180;7888;46.748;8.102;2023-04-01T16:57:59;93130.00;;;19.40
15575;BMP180;7888;46.748;8.102;2023-04-01T17:00:50;93130.00;;;19.20
15575;BMP180;7888;46.748;8.102;2023-04-01T17:03:44;93138.00;;;19.10
15575;BMP180;7888;46.748;8.102;2023-04-01T17:06:40;93138.00;;;19.10
15575;BMP180;7888;46.748;8.102;2023-04-01T17:09:29;93133.00;;;19.00
15575;BMP180;7888;46.748;8.102;2023-04-01T17:15:21;93147.00;;;18.80
15575;BMP180;7888;46.748;8.102;2023-04-01T17:21:13;93151.00;;;18.70
15575;BMP180;7888;46.748;8.102;2023-04-01T17:41:41;93175.00;;;18.30
15575;BMP180;7888;46.748;8.102;2023-04-01T17:50:07;93180.00;;;18.00
15575;BMP180;7888;46.748;8.102;2023-04-01T17:52:48;93184.00;;;17.90
15575;BMP180;7888;46.748;8.102;2023-04-01T18:07:39;93198.00;;;17.60
15575;BMP180;7888;46.748;8.102;2023-04-01T18:20:07;93217.00;;;17.30
15575;BMP180;7888;46.748;8.102;2023-04-01T18:25:38;93213.00;;;17.30
15575;BMP180;7888;46.748;8.102;2023-04-01T18:28:27;93218.00;;;17.20
15575;BMP180;7888;46.748;8.102;2023-04-01T18:33:54;93214.00;;;17.00
15575;BMP180;7888;46.748;8.102;2023-04-01T18:36:47;93232.00;;;16.90
15575;BMP180;7888;46.748;8.102;2023-04-01T18:39:47;93233.00;;;16.80
15575;BMP180;7888;46.748;8.102;2023-04-01T18:48:50;93248.00;;;16.40
15575;BMP180;7888;46.748;8.102;2023-04-01T18:54:00;93245.00;;;16.20
15575;BMP180;7888;46.748;8.102;2023-04-01T18:56:34;93262.00;;;16.20
15575;BMP180;7888;46.748;8.102;2023-04-01T18:59:25;93273.00;;;16.10
15575;BMP180;7888;46.748;8.102;2023-04-01T19:02:20;93277.00;;;16.10
15575;BMP180;7888;46.748;8.102;2023-04-01T19:05:11;93282.00;;;16.10
15575;BMP180;7888;46.748;8.102;2023-04-01T19:07:53;93287.00;;;16.10
15575;BMP180;7888;46.748;8.102;2023-04-01T19:10:51;93295.00;;;16.10
15575;BMP180;7888;46.748;8.102;2023-04-01T19:25:48;93305.00;;;16.00
15575;BMP180;7888;46.748;8.102;2023-04-01T19:28:39;93305.00;;;16.00
15575;BMP180;7888;46.748;8.102;2023-04-01T19:31:54;93313.00;;;16.00
15575;BMP180;7888;46.748;8.102;2023-04-01T19:37:30;93309.00;;;15.90
15575;BMP180;7888;46.748;8.102;2023-04-01T19:43:30;93297.00;;;15.80
15575;BMP180;7888;46.748;8.102;2023-04-01T19:46:39;93320.00;;;15.80
15575;BMP180;7888;46.748;8.102;2023-04-01T19:49:49;93320.00;;;15.80
15575;BMP180;7888;46.748;8.102;2023-04-01T19:52:36;93320.00;;;15.70
15575;BMP180;7888;46.748;8.102;2023-04-01T20:09:11;93326.00;;;15.30
15575;BMP180;7888;46.748;8.102;2023-04-01T20:11:58;93334.00;;;15.30
15575;BMP180;7888;46.748;8.102;2023-04-01T20:17:26;93334.00;;;15.20
15575;BMP180;7888;46.748;8.102;2023-04-01T20:28:11;93362.00;;;15.00
15575;BMP180;7888;46.748;8.102;2023-04-01T20:40:34;93365.00;;;14.70
15575;BMP180;7888;46.748;8.102;2023-04-01T20:52:01;93363.00;;;14.70
15575;BMP180;7888;46.748;8.102;2023-04-01T20:58:04;93373.00;;;14.50
15575;BMP180;7888;46.748;8.102;2023-04-01T21:00:54;93379.00;;;14.50
15575;BMP180;7888;46.748;8.102;2023-04-01T21:03:38;93375.00;;;14.50
15575;BMP180;7888;46.748;8.102;2023-04-01T21:06:27;93369.00;;;14.50
15575;BMP180;7888;46.748;8.102;2023-04-01T21:15:16;93393.00;;;14.50
15575;BMP180;7888;46.748;8.102;2023-04-01T21:27:57;93387.00;;;14.30
15575;BMP180;7888;46.748;8.102;2023-04-01T21:33:23;93395.00;;;14.30
15575;BMP180;7888;46.748;8.102;2023-04-01T21:38:51;93395.00;;;14.30
15575;BMP180;7888;46.748;8.102;2023-04-01T22:00:09;93427.00;;;14.00
15575;BMP180;7888;46.748;8.102;2023-04-01T22:03:18;93427.00;;;14.00
15575;BMP180;7888;46.748;8.102;2023-04-01T22:08:55;93426.00;;;14.00
15575;BMP180;7888;46.748;8.102;2023-04-01T22:12:21;93422.00;;;14.00
15575;BMP180;7888;46.748;8.102;2023-04-01T22:21:12;93432.00;;;13.80
15575;BMP180;7888;46.748;8.102;2023-04-01T22:26:50;93436.00;;;13.80
15575;BMP180;7888;46.748;8.102;2023-04-01T22:29:40;93434.00;;;13.70
15575;BMP180;7888;46.748;8.102;2023-04-01T22:32:18;93425.00;;;13.80
15575;BMP180;7888;46.748;8.102;2023-04-01T22:43:45;93433.00;;;13.60
15575;BMP180;7888;46.748;8.102;2023-04-01T22:49:38;93443.00;;;13.50
15575;BMP180;7888;46.748;8.102;2023-04-01T22:52:42;93441.00;;;13.30
15575;BMP180;7888;46.748;8.102;2023-04-01T22:55:17;93438.00;;;13.40
15575;BMP180;7888;46.748;8.102;2023-04-01T22:58:04;93432.00;;;13.30
15575;BMP180;7888;46.748;8.102;2023-04-01T23:00:42;93441.00;;;13.30
15575;BMP180;7888;46.748;8.102;2023-04-01T23:03:30;93440.00;;;13.30
15575;BMP180;7888;46.748;8.102;2023-04-01T23:06:03;93445.00;;;13.30
15575;BMP180;7888;46.748;8.102;2023-04-01T23:11:50;93447.00;;;13.30
15575;BMP180;7888;46.748;8.102;2023-04-01T23:22:28;93449.00;;;13.20
15575;BMP180;7888;46.748;8.102;2023-04-01T23:36:11;93468.00;;;13.10
15575;BMP180;7888;46.748;8.102;2023-04-01T23:38:40;93471.00;;;13.20
15575;BMP180;7888;46.748;8.102;2023-04-01T23:41:26;93465.00;;;13.20
15575;BMP180;7888;46.748;8.102;2023-04-01T23:44:14;93455.00;;;13.20
15575;BMP180;7888;46.748;8.102;2023-04-01T23:46:44;93466.00;;;13.20
15575;BMP180;7888;46.748;8.102;2023-04-01T23:49:19;93464.00;;;13.10
15575;BMP180;7888;46.748;8.102;2023-04-01T23:52:30;93470.00;;;13.10
15575;BMP180;7888;46.748;8.102;2023-04-01T23:55:44;93465.00;;;13.10
15575;BMP180;7888;46.748;8.102;2023-04-01T23:58:23;93454.00;;;13.10
